Time;durP1;ratioP1;P1;durP2;ratioP2;P2;SDS_P1;SDS_P2;PMS_P1;PMS_P2;Temp;Humidity;BMP_temperature;BMP_pressure;BME280_temperature;BME280_humidity;BME280_pressure;Samples;Min_cycle;Max_cycle;Signal;HPM_P1;HPM_P2
2022/01/30 00:01:54;;;;;;;31.90;4.40;;;6.10;99.90;;;;;;4903541;29;19919;-86
2022/01/30 00:04:20;;;;;;;25.55;5.22;;;6.10;99.90;;;;;;4904146;29;20492;-87
2022/01/30 00:06:46;;;;;;;22.55;4.43;;;6.10;99.90;;;;;;4903549;29;20131;-86
2022/01/30 00:09:19;;;;;;;24.25;4.28;;;6.10;99.90;;;;;;4887841;29;20048;-87
2022/01/30 00:11:50;;;;;;;24.33;4.55;;;6.10;99.90;;;;;;4889495;29;20048;-85
2022/01/30 00:14:18;;;;;;;31.75;4.55;;;6.10;99.90;;;;;;4903648;29;20198;-87
2022/01/30 00:16:44;;;;;;;28.05;4.43;;;6.10;99.90;;;;;;4879086;29;20040;-87
2022/01/30 00:21:43;;;;;;;16.52;3.35;;;5.90;99.90;;;;;;4902056;29;20506;-85
2022/01/30 00:24:26;;;;;;;26.33;4.43;;;5.70;99.90;;;;;;4871427;29;20040;-87
2022/01/30 00:26:52;;;;;;;25.80;4.50;;;5.60;99.90;;;;;;4870909;29;20108;-85
2022/01/30 00:29:18;;;;;;;23.48;3.97;;;5.60;99.90;;;;;;4884576;29;20072;-85
2022/01/30 00:31:43;;;;;;;28.58;4.60;;;5.50;99.90;;;;;;4869158;29;20135;-85
2022/01/30 00:34:09;;;;;;;27.48;4.18;;;5.50;99.90;;;;;;4868414;29;20052;-84
2022/01/30 00:36:35;;;;;;;21.27;3.67;;;5.50;99.90;;;;;;4868865;29;20044;-85
2022/01/30 00:39:01;;;;;;;19.35;2.80;;;5.30;99.90;;;;;;4899123;29;20052;-84
2022/01/30 00:41:27;;;;;;;19.27;2.33;;;5.20;99.90;;;;;;4897212;29;20530;-85
2022/01/30 00:43:53;;;;;;;18.05;2.67;;;5.10;99.90;;;;;;4903336;29;20040;-84
2022/01/30 00:46:19;;;;;;;16.55;2.38;;;5.00;99.90;;;;;;4916421;29;20946;-84
2022/01/30 00:48:45;;;;;;;24.55;3.05;;;5.00;99.90;;;;;;4887725;29;20047;-84
2022/01/30 00:51:10;;;;;;;21.05;3.85;;;5.00;99.90;;;;;;4902630;29;20048;-83
2022/01/30 00:53:36;;;;;;;27.88;4.40;;;5.10;99.90;;;;;;4887475;29;20518;-84
2022/01/30 00:56:02;;;;;;;30.65;5.57;;;5.20;99.90;;;;;;4887811;29;20158;-85
2022/01/30 00:58:28;;;;;;;26.92;4.95;;;5.50;99.90;;;;;;4902801;29;20050;-84
2022/01/30 01:00:54;;;;;;;30.27;5.60;;;5.40;99.90;;;;;;4886564;29;20036;-84
2022/01/30 01:03:20;;;;;;;27.02;4.70;;;5.50;99.90;;;;;;4912982;29;20036;-85
2022/01/30 01:05:46;;;;;;;31.15;4.60;;;5.60;99.90;;;;;;4887835;29;20051;-84
2022/01/30 01:08:28;;;;;;;30.38;4.32;;;5.40;99.90;;;;;;4886542;29;20531;-84
2022/01/30 01:11:01;;;;;;;33.67;4.68;;;5.50;99.90;;;;;;4917735;29;20048;-84
2022/01/30 01:20:49;;;;;;;28.70;4.40;;;5.50;99.90;;;;;;4917680;29;20107;-81
2022/01/30 01:24:28;;;;;;;29.02;5.05;;;5.70;99.90;;;;;;4888067;29;20049;-84
2022/01/30 01:26:54;;;;;;;36.95;6.38;;;5.70;99.90;;;;;;4901147;29;20487;-85
2022/01/30 01:29:19;;;;;;;25.98;4.43;;;5.70;99.90;;;;;;4901631;29;20087;-84
2022/01/30 01:31:45;;;;;;;36.22;5.53;;;5.80;99.90;;;;;;4901489;29;20100;-84
2022/01/30 01:37:11;;;;;;;28.83;4.72;;;5.90;99.90;;;;;;4908961;29;20144;-84
2022/01/30 01:39:36;;;;;;;35.50;4.97;;;5.90;99.90;;;;;;4900635;29;20048;-83
2022/01/30 01:42:03;;;;;;;32.58;5.10;;;5.90;99.90;;;;;;4901153;29;20040;-83
2022/01/30 01:44:37;;;;;;;28.60;4.00;;;5.90;99.90;;;;;;4916272;29;20044;-83
2022/01/30 01:47:03;;;;;;;30.52;4.95;;;5.90;99.90;;;;;;4901902;29;20044;-82
2022/01/30 01:49:32;;;;;;;31.00;5.47;;;5.90;99.90;;;;;;4901823;29;20140;-84
2022/01/30 01:54:44;;;;;;;23.88;3.95;;;5.80;99.90;;;;;;4933825;29;20079;-83
2022/01/30 01:57:10;;;;;;;28.33;4.35;;;5.60;99.90;;;;;;4923369;29;20130;-82
2022/01/30 01:59:36;;;;;;;25.70;3.85;;;5.60;99.90;;;;;;4917077;29;20123;-83
2022/01/30 02:02:03;;;;;;;24.13;4.57;;;5.60;99.90;;;;;;4901939;29;20127;-84
2022/01/30 02:04:29;;;;;;;30.00;6.20;;;5.60;99.90;;;;;;4886930;29;20131;-83
2022/01/30 02:07:10;;;;;;;29.52;4.78;;;5.70;99.90;;;;;;4902425;29;20123;-82
2022/01/30 02:09:37;;;;;;;36.58;6.28;;;5.80;99.90;;;;;;4917616;29;20044;-83
2022/01/30 02:12:03;;;;;;;39.10;6.10;;;5.80;99.90;;;;;;4885769;29;20063;-82
2022/01/30 02:14:50;;;;;;;27.58;5.03;;;5.90;99.90;;;;;;4917708;29;20044;-83
2022/01/30 02:27:57;;;;;;;20.33;4.22;;;5.70;99.90;;;;;;4917237;29;20044;-82
2022/01/30 02:30:26;;;;;;;28.13;4.68;;;5.60;99.90;;;;;;4889877;29;20055;-82
2022/01/30 02:32:54;;;;;;;28.92;5.03;;;5.50;99.90;;;;;;4905249;29;20051;-82
2022/01/30 02:35:19;;;;;;;32.10;5.10;;;5.50;99.90;;;;;;4904815;29;20043;-82
2022/01/30 02:37:47;;;;;;;27.48;4.80;;;5.60;99.90;;;;;;4888951;29;20514;-82
2022/01/30 02:40:13;;;;;;;35.42;5.80;;;5.60;99.90;;;;;;4909859;29;20052;-83
2022/01/30 02:42:45;;;;;;;39.15;5.78;;;5.70;99.90;;;;;;4870634;29;20449;-83
2022/01/30 02:45:13;;;;;;;33.08;6.22;;;5.80;99.90;;;;;;4901575;29;20048;-83
2022/01/30 02:47:52;;;;;;;38.35;6.80;;;5.80;99.90;;;;;;4904566;29;20131;-82
2022/01/30 02:50:32;;;;;;;33.25;5.88;;;5.80;99.90;;;;;;4918914;29;20056;-83
2022/01/30 02:52:58;;;;;;;33.25;5.63;;;5.90;99.90;;;;;;4918677;29;20500;-84
2022/01/30 02:55:24;;;;;;;33.70;6.38;;;5.90;99.90;;;;;;4888320;29;20051;-82
2022/01/30 02:57:50;;;;;;;38.17;6.95;;;5.90;99.90;;;;;;4919119;29;20075;-83
2022/01/30 03:00:16;;;;;;;36.53;6.25;;;5.80;99.90;;;;;;4918963;29;20096;-81
2022/01/30 03:02:42;;;;;;;33.65;5.88;;;6.00;99.90;;;;;;4898631;29;20395;-82
2022/01/30 03:05:08;;;;;;;40.90;6.75;;;6.10;99.90;;;;;;4876132;29;20123;-82
2022/01/30 03:07:34;;;;;;;34.17;5.93;;;6.10;99.90;;;;;;4918629;29;20036;-81
2022/01/30 03:10:00;;;;;;;33.38;6.07;;;6.10;99.90;;;;;;4903217;29;20047;-82
2022/01/30 03:12:26;;;;;;;33.25;6.10;;;6.10;99.90;;;;;;4903629;29;20032;-81
2022/01/30 03:14:55;;;;;;;29.17;6.15;;;6.20;99.90;;;;;;4903081;29;20451;-82
2022/01/30 03:17:21;;;;;;;37.47;5.97;;;6.20;99.90;;;;;;4888050;29;20074;-83
2022/01/30 03:19:46;;;;;;;39.38;6.35;;;6.20;99.90;;;;;;4919016;29;20131;-82
2022/01/30 03:22:13;;;;;;;30.05;5.97;;;6.10;99.90;;;;;;4919290;29;20044;-81
2022/01/30 03:24:39;;;;;;;39.35;6.10;;;6.10;99.90;;;;;;4902757;29;20048;-81
2022/01/30 03:27:07;;;;;;;37.28;6.75;;;6.10;99.90;;;;;;4902954;29;20055;-81
2022/01/30 03:29:33;;;;;;;38.88;6.40;;;6.20;99.90;;;;;;4887206;29;20036;-80
2022/01/30 03:31:59;;;;;;;35.28;6.05;;;6.20;99.90;;;;;;4887541;29;20032;-80
2022/01/30 03:34:24;;;;;;;35.38;6.38;;;6.20;99.90;;;;;;4903219;29;20043;-81
2022/01/30 03:36:51;;;;;;;29.88;5.35;;;6.20;99.90;;;;;;4918932;29;20123;-82
2022/01/30 03:39:16;;;;;;;38.80;6.90;;;6.10;99.90;;;;;;4902393;29;20477;-82
2022/01/30 03:41:42;;;;;;;32.03;5.63;;;6.20;99.90;;;;;;4886702;29;20080;-82
2022/01/30 03:44:08;;;;;;;32.55;6.13;;;6.20;99.90;;;;;;4903066;29;20051;-81
2022/01/30 03:46:34;;;;;;;34.58;5.70;;;6.20;99.90;;;;;;4897634;29;20052;-81
2022/01/30 03:48:59;;;;;;;33.70;6.75;;;6.20;99.90;;;;;;4871825;29;20032;-81
2022/01/30 03:51:25;;;;;;;34.53;6.68;;;6.20;99.90;;;;;;4887812;29;20055;-81
2022/01/30 03:53:51;;;;;;;34.70;7.35;;;6.10;99.90;;;;;;4919024;29;20070;-81
2022/01/30 03:56:16;;;;;;;39.70;7.22;;;6.20;99.90;;;;;;4902954;29;20044;-81
2022/01/30 03:58:42;;;;;;;44.38;7.57;;;6.20;99.90;;;;;;4919629;29;20476;-80
2022/01/30 04:01:08;;;;;;;25.23;5.25;;;6.20;99.90;;;;;;4886858;29;20106;-84
2022/01/30 04:03:36;;;;;;;33.05;5.90;;;6.30;99.90;;;;;;4886674;29;20043;-83
2022/01/30 04:06:03;;;;;;;32.20;6.13;;;5.70;99.90;;;;;;4915106;29;20044;-83
2022/01/30 04:08:29;;;;;;;37.30;6.65;;;5.60;99.90;;;;;;4903638;29;20048;-84
2022/01/30 04:10:55;;;;;;;35.33;6.60;;;5.60;99.90;;;;;;4904105;29;20112;-83
2022/01/30 04:13:21;;;;;;;36.17;6.43;;;5.70;99.90;;;;;;4903567;29;20558;-82
2022/01/30 04:15:47;;;;;;;48.65;7.53;;;5.90;99.90;;;;;;4887801;29;20472;-84
2022/01/30 04:18:13;;;;;;;41.40;6.82;;;5.90;99.90;;;;;;4903804;29;20043;-84
2022/01/30 04:20:39;;;;;;;45.22;7.88;;;5.90;99.90;;;;;;4887529;29;20032;-83
2022/01/30 04:23:04;;;;;;;47.10;7.82;;;6.00;99.90;;;;;;4887394;29;20051;-83
2022/01/30 04:25:30;;;;;;;42.28;6.78;;;6.10;99.90;;;;;;4903291;29;20040;-83
2022/01/30 04:27:56;;;;;;;43.33;7.60;;;6.10;99.90;;;;;;4902583;29;20139;-85
2022/01/30 04:30:22;;;;;;;37.70;7.32;;;6.10;99.90;;;;;;4901905;29;20032;-83
2022/01/30 04:32:48;;;;;;;47.22;7.95;;;6.10;99.90;;;;;;4917704;29;20131;-83
2022/01/30 04:35:22;;;;;;;36.95;6.90;;;6.20;99.90;;;;;;4886670;29;20440;-83
2022/01/30 04:38:06;;;;;;;40.17;7.18;;;6.20;99.90;;;;;;4902914;29;20130;-83
2022/01/30 05:05:35;;;;;;;37.08;6.35;;;6.30;99.90;;;;;;4883059;29;20044;-83
2022/01/30 05:07:57;;;;;;;46.30;7.18;;;6.30;99.90;;;;;;4917387;29;20044;-84
2022/01/30 05:10:22;;;;;;;47.78;7.45;;;6.30;99.90;;;;;;4902825;29;20087;-82
2022/01/30 05:12:52;;;;;;;48.05;8.80;;;6.40;99.90;;;;;;4902815;29;20440;-83
2022/01/30 05:15:20;;;;;;;45.33;7.78;;;6.50;99.90;;;;;;4902332;29;20400;-83
2022/01/30 05:17:46;;;;;;;36.97;7.03;;;6.40;99.90;;;;;;4902958;29;20194;-83
2022/01/30 05:20:13;;;;;;;40.05;7.40;;;6.40;99.90;;;;;;4886785;29;20054;-82
2022/01/30 05:22:39;;;;;;;32.92;6.47;;;6.30;99.90;;;;;;4901741;29;20050;-83
2022/01/30 05:25:07;;;;;;;41.90;7.60;;;6.30;99.90;;;;;;4901689;29;20113;-82
2022/01/30 05:27:32;;;;;;;38.03;6.78;;;6.20;99.90;;;;;;4886024;29;20095;-83
2022/01/30 05:29:59;;;;;;;35.20;6.47;;;6.20;99.90;;;;;;4901255;29;20044;-83
2022/01/30 05:32:24;;;;;;;43.33;7.22;;;6.00;99.90;;;;;;4902241;29;20048;-82
2022/01/30 05:34:50;;;;;;;37.92;7.60;;;5.90;99.90;;;;;;4901400;29;20555;-83
2022/01/30 05:37:18;;;;;;;47.35;8.63;;;6.00;99.90;;;;;;4901249;29;20115;-83
2022/01/30 05:39:45;;;;;;;43.17;7.25;;;6.00;99.90;;;;;;4901786;29;20040;-82
2022/01/30 05:42:12;;;;;;;43.95;7.03;;;6.00;99.90;;;;;;4916975;29;20052;-82
2022/01/30 05:44:46;;;;;;;40.17;8.48;;;6.00;99.90;;;;;;4885316;29;20526;-81
2022/01/30 05:47:24;;;;;;;38.97;7.57;;;6.10;99.90;;;;;;4901739;29;20047;-82
2022/01/30 05:49:50;;;;;;;41.10;7.85;;;6.20;99.90;;;;;;4902087;29;20057;-82
2022/01/30 05:52:16;;;;;;;46.13;8.45;;;6.30;99.90;;;;;;4882122;29;20559;-82
2022/01/30 05:54:42;;;;;;;35.17;6.63;;;6.40;99.90;;;;;;4897172;29;20040;-80
2022/01/30 05:57:08;;;;;;;36.25;6.93;;;6.10;99.90;;;;;;4885453;29;20379;-82
2022/01/30 05:59:33;;;;;;;31.73;6.35;;;5.60;99.90;;;;;;4900802;29;20492;-83
2022/01/30 06:01:59;;;;;;;38.83;6.70;;;5.30;99.90;;;;;;4885354;29;20210;-82
2022/01/30 06:04:25;;;;;;;35.22;6.18;;;5.20;99.90;;;;;;4918573;29;20044;-82
2022/01/30 06:06:52;;;;;;;45.83;6.90;;;5.20;99.90;;;;;;4904974;29;20036;-82
2022/01/30 06:09:19;;;;;;;36.78;6.55;;;5.20;99.90;;;;;;4904738;29;20339;-82
2022/01/30 06:11:47;;;;;;;47.25;8.60;;;5.30;99.90;;;;;;4920711;29;20044;-82
2022/01/30 06:14:14;;;;;;;47.40;7.65;;;5.30;99.90;;;;;;4904632;29;20040;-82
2022/01/30 06:16:40;;;;;;;39.10;6.75;;;5.50;99.90;;;;;;4920462;29;20052;-81
2022/01/30 06:19:06;;;;;;;46.75;8.20;;;5.70;99.90;;;;;;4904762;29;20103;-82
2022/01/30 06:21:31;;;;;;;44.90;7.82;;;5.90;99.90;;;;;;4905590;29;20052;-82
2022/01/30 06:23:57;;;;;;;44.60;7.25;;;6.00;99.90;;;;;;4920798;29;20087;-82
2022/01/30 06:26:23;;;;;;;44.83;7.20;;;6.00;99.90;;;;;;4889538;29;20800;-82
2022/01/30 06:28:48;;;;;;;41.17;8.10;;;6.00;99.90;;;;;;4909456;29;20043;-82
2022/01/30 06:31:15;;;;;;;35.60;7.45;;;6.00;99.90;;;;;;4904525;29;20036;-82
2022/01/30 06:33:41;;;;;;;;;;;6.00;99.90;;;;;;4890731;29;20048;-83
2022/01/30 06:36:06;;;;;;;35.42;6.57;;;6.00;99.90;;;;;;4921226;29;19926;-83
2022/01/30 06:38:32;;;;;;;41.88;7.05;;;6.00;99.90;;;;;;4889546;29;20080;-84
2022/01/30 06:40:58;;;;;;;32.58;6.28;;;6.10;99.90;;;;;;4889637;29;20036;-83
2022/01/30 06:43:24;;;;;;;36.33;6.95;;;6.20;99.90;;;;;;4919855;29;20447;-82
2022/01/30 06:45:50;;;;;;;;;;;6.30;99.90;;;;;;4905163;29;20047;-78
2022/01/30 06:48:18;;;;;;;36.35;6.03;;;6.30;99.90;;;;;;4905111;29;19923;-81
2022/01/30 06:50:44;;;;;;;35.78;6.55;;;6.20;99.90;;;;;;4921126;29;20393;-81
2022/01/30 06:53:09;;;;;;;32.10;5.68;;;6.20;99.90;;;;;;4920151;29;20078;-81
2022/01/30 06:55:38;;;;;;;33.30;5.70;;;6.20;99.90;;;;;;4903436;29;20410;-81
2022/01/30 06:58:04;;;;;;;30.30;5.85;;;6.20;99.90;;;;;;4884107;29;20040;-81
2022/01/30 07:00:29;;;;;;;30.33;7.13;;;6.20;99.90;;;;;;4906638;29;20046;-80
2022/01/30 07:02:55;;;;;;;38.72;7.38;;;6.20;99.90;;;;;;4901668;29;20040;-80
2022/01/30 07:05:21;;;;;;;33.35;6.28;;;6.10;99.90;;;;;;4902268;29;20047;-77
2022/01/30 07:07:46;;;;;;;44.78;7.63;;;6.10;99.90;;;;;;4927583;29;20091;-80
2022/01/30 07:10:12;;;;;;;40.85;6.97;;;6.00;99.90;;;;;;4916148;29;20527;-82
2022/01/30 07:12:38;;;;;;;33.42;6.85;;;5.90;99.90;;;;;;4889538;29;20407;-81
2022/01/30 07:15:04;;;;;;;35.15;6.88;;;5.90;99.90;;;;;;4902404;29;20047;-78
2022/01/30 07:17:29;;;;;;;45.85;8.50;;;5.90;99.90;;;;;;4885958;29;20400;-79
2022/01/30 07:19:55;;;;;;;37.50;6.53;;;5.90;99.90;;;;;;4899135;29;20050;-81
2022/01/30 07:22:21;;;;;;;33.70;6.63;;;5.90;99.90;;;;;;4903542;29;20075;-81
2022/01/30 07:24:49;;;;;;;28.88;5.75;;;5.90;99.90;;;;;;4882360;29;20059;-82
2022/01/30 07:27:15;;;;;;;30.67;6.43;;;6.00;99.90;;;;;;4887557;29;20055;-81
2022/01/30 07:29:40;;;;;;;37.03;6.32;;;6.00;99.90;;;;;;4906364;29;20044;-81
2022/01/30 07:32:06;;;;;;;27.63;5.15;;;6.10;99.90;;;;;;4902143;29;20127;-81
2022/01/30 07:34:32;;;;;;;21.73;5.40;;;6.00;99.90;;;;;;4887139;29;20044;-80
2022/01/30 07:36:58;;;;;;;27.27;5.05;;;6.00;99.90;;;;;;4884442;29;20100;-81
2022/01/30 07:39:28;;;;;;;25.42;4.68;;;6.10;99.90;;;;;;4883558;29;20059;-80
2022/01/30 07:41:54;;;;;;;25.35;5.22;;;6.10;99.90;;;;;;4899913;29;20127;-80
2022/01/30 07:44:20;;;;;;;24.20;5.80;;;6.20;99.90;;;;;;4915446;29;20084;-79
2022/01/30 07:46:47;;;;;;;23.42;5.32;;;6.10;99.90;;;;;;4900969;29;20075;-80
2022/01/30 07:49:12;;;;;;;24.15;5.40;;;6.00;99.90;;;;;;4902073;29;20123;-80
2022/01/30 07:51:38;;;;;;;22.25;4.65;;;6.00;99.90;;;;;;4901218;29;20128;-81
2022/01/30 07:54:04;;;;;;;31.63;6.03;;;6.00;99.90;;;;;;4918045;29;20130;-81
2022/01/30 07:56:30;;;;;;;29.33;6.00;;;6.00;99.90;;;;;;4897540;29;20040;-84
2022/01/30 07:58:57;;;;;;;30.13;4.90;;;6.10;99.90;;;;;;4910040;29;20043;-79
2022/01/30 08:01:23;;;;;;;29.63;6.20;;;6.00;99.90;;;;;;4916451;29;20044;-80
2022/01/30 08:03:48;;;;;;;32.13;5.85;;;6.00;99.90;;;;;;4884907;29;20590;-79
2022/01/30 08:06:14;;;;;;;23.50;4.80;;;6.00;99.90;;;;;;4886216;29;20044;-80
2022/01/30 08:08:40;;;;;;;37.08;6.90;;;6.00;99.90;;;;;;4916973;29;20048;-80
2022/01/30 08:11:08;;;;;;;34.03;5.60;;;5.90;99.90;;;;;;4916921;29;20040;-80
2022/01/30 08:13:34;;;;;;;36.58;5.85;;;6.00;99.90;;;;;;4917063;29;20081;-79
2022/01/30 08:15:59;;;;;;;39.58;7.32;;;6.10;99.90;;;;;;4916788;29;20131;-79
2022/01/30 08:18:26;;;;;;;37.67;6.72;;;6.10;99.90;;;;;;4916436;29;20259;-79
2022/01/30 08:20:51;;;;;;;34.00;7.38;;;6.10;99.90;;;;;;4900969;29;20452;-79
2022/01/30 08:23:19;;;;;;;30.90;6.60;;;6.00;99.90;;;;;;4916902;29;20051;-80
2022/01/30 08:25:45;;;;;;;36.88;6.10;;;6.00;99.90;;;;;;4916480;29;20814;-79
2022/01/30 08:28:11;;;;;;;33.05;5.68;;;6.00;99.90;;;;;;4916265;29;20099;-80
2022/01/30 08:30:37;;;;;;;38.20;6.50;;;6.00;99.90;;;;;;4901547;29;20028;-80
2022/01/30 08:33:03;;;;;;;37.00;6.60;;;5.90;99.90;;;;;;4917061;29;20487;-80
2022/01/30 08:35:29;;;;;;;30.50;6.38;;;5.80;99.90;;;;;;4916875;29;20047;-80
2022/01/30 08:37:59;;;;;;;35.35;6.63;;;5.80;99.90;;;;;;4901038;29;20522;-79
2022/01/30 08:40:26;;;;;;;28.17;6.25;;;5.90;99.90;;;;;;4900258;29;20047;-79
2022/01/30 08:42:52;;;;;;;27.85;5.35;;;6.00;99.90;;;;;;4915869;29;20135;-79
2022/01/30 08:45:20;;;;;;;24.30;5.25;;;6.10;99.90;;;;;;4900509;29;20551;-81
2022/01/30 08:47:48;;;;;;;32.67;6.10;;;6.10;99.90;;;;;;4900185;29;20131;-80
2022/01/30 08:50:15;;;;;;;23.90;4.85;;;6.10;99.90;;;;;;4916495;29;20056;-80
2022/01/30 08:52:42;;;;;;;24.30;4.60;;;6.20;99.90;;;;;;4915545;29;20052;-81
2022/01/30 08:55:11;;;;;;;31.30;5.80;;;6.20;99.90;;;;;;4915755;29;20310;-81
2022/01/30 08:57:37;;;;;;;35.10;6.70;;;6.20;99.90;;;;;;4915782;29;20028;-79
2022/01/30 09:00:06;;;;;;;36.78;6.53;;;6.10;99.90;;;;;;4916215;29;20520;-80
2022/01/30 09:02:31;;;;;;;32.40;5.93;;;6.00;99.90;;;;;;4916537;29;20044;-78
2022/01/30 09:04:57;;;;;;;35.67;6.72;;;6.00;99.90;;;;;;4900696;29;20059;-80
2022/01/30 09:07:22;;;;;;;32.13;6.80;;;6.10;99.90;;;;;;4930847;29;20047;-79
2022/01/30 09:09:48;;;;;;;21.88;5.55;;;6.20;99.90;;;;;;4917577;29;20609;-80
2022/01/30 09:12:14;;;;;;;31.52;6.50;;;6.20;99.90;;;;;;4894092;29;20032;-78
2022/01/30 09:14:42;;;;;;;31.98;6.18;;;6.40;99.90;;;;;;4911338;29;20048;-79
2022/01/30 09:17:13;;;;;;;37.78;6.25;;;6.40;99.90;;;;;;4910111;29;20044;-78
2022/01/30 09:19:44;;;;;;;46.05;7.68;;;6.40;99.90;;;;;;4896360;29;20135;-78
2022/01/30 09:22:17;;;;;;;28.88;5.40;;;6.40;99.90;;;;;;4906631;29;20059;-78
2022/01/30 09:24:43;;;;;;;22.50;5.10;;;6.30;99.90;;;;;;4914169;29;20831;-78
2022/01/30 09:27:09;;;;;;;33.05;6.05;;;6.30;99.90;;;;;;4875852;29;20040;-78
2022/01/30 09:29:37;;;;;;;32.38;5.75;;;6.30;99.90;;;;;;4913845;29;20036;-79
2022/01/30 09:32:05;;;;;;;25.92;5.07;;;6.30;99.90;;;;;;4897225;29;20063;-78
2022/01/30 09:34:31;;;;;;;25.83;5.85;;;6.40;99.90;;;;;;4897346;29;20119;-78
2022/01/30 09:36:57;;;;;;;;;;;6.50;99.90;;;;;;4893137;29;20044;-79
2022/01/30 09:39:24;;;;;;;19.67;4.40;;;6.50;99.90;;;;;;4911429;29;19926;-79
2022/01/30 09:41:52;;;;;;;;;;;6.50;99.90;;;;;;4880289;29;20095;-79
2022/01/30 09:44:21;;;;;;;26.25;5.07;;;6.60;99.90;;;;;;4914926;29;19960;-78
2022/01/30 09:46:47;;;;;;;29.38;5.90;;;6.70;99.90;;;;;;4893811;29;20080;-78
2022/01/30 09:49:13;;;;;;;26.23;4.88;;;6.70;99.90;;;;;;4881209;29;20352;-78
2022/01/30 09:51:40;;;;;;;;;;;6.60;99.90;;;;;;4913604;29;20083;-78
2022/01/30 09:54:08;;;;;;;25.35;5.00;;;6.70;99.90;;;;;;4904270;29;19923;-78
2022/01/30 09:56:34;;;;;;;27.83;5.72;;;6.80;99.90;;;;;;4911063;29;20040;-77
2022/01/30 09:59:00;;;;;;;;;;;6.80;99.90;;;;;;4872381;29;20118;-78
2022/01/30 10:01:32;;;;;;;26.58;5.38;;;6.80;99.90;;;;;;4897188;29;20009;-78
2022/01/30 10:03:58;;;;;;;26.00;4.85;;;6.70;99.90;;;;;;4890399;29;20048;-79
2022/01/30 10:06:29;;;;;;;32.67;5.90;;;6.70;99.90;;;;;;4873858;29;20064;-80
2022/01/30 10:08:57;;;;;;;23.95;5.05;;;6.70;99.90;;;;;;4881071;29;20139;-84
2022/01/30 10:14:04;;;;;;;27.02;5.38;;;6.70;99.90;;;;;;4916221;29;20040;-78
2022/01/30 10:16:43;;;;;;;31.83;6.22;;;6.80;99.90;;;;;;4898874;29;20123;-80
2022/01/30 10:19:19;;;;;;;33.03;6.25;;;6.90;99.90;;;;;;4913212;29;20052;-80
2022/01/30 10:21:47;;;;;;;29.73;5.95;;;7.10;99.90;;;;;;4915843;29;20528;-79
2022/01/30 10:24:25;;;;;;;34.33;6.63;;;7.10;99.90;;;;;;4915639;29;20047;-80
2022/01/30 10:26:52;;;;;;;31.45;6.15;;;7.10;99.90;;;;;;4926123;29;20120;-79
2022/01/30 10:29:18;;;;;;;30.58;6.47;;;7.10;99.90;;;;;;4912736;29;20195;-78
2022/01/30 10:32:02;;;;;;;35.73;6.73;;;7.00;99.90;;;;;;4910979;29;20135;-78
2022/01/30 10:34:28;;;;;;;32.05;5.85;;;6.90;99.90;;;;;;4908716;29;20810;-81
2022/01/30 10:37:12;;;;;;;29.35;6.47;;;6.90;99.90;;;;;;4908304;29;20041;-79
2022/01/30 10:40:00;;;;;;;39.60;7.15;;;6.80;99.90;;;;;;4895059;29;20401;-78
2022/01/30 10:42:38;;;;;;;;;;;6.80;99.90;;;;;;4907810;29;20194;-79
2022/01/30 10:45:15;;;;;;;31.92;5.97;;;6.80;99.90;;;;;;4898149;29;19965;-79
2022/01/30 10:47:42;;;;;;;34.15;6.13;;;6.90;99.90;;;;;;4929538;29;20112;-78
2022/01/30 10:50:15;;;;;;;28.92;4.75;;;7.10;99.90;;;;;;4889895;29;20141;-77
2022/01/30 10:52:59;;;;;;;28.42;5.78;;;7.00;99.90;;;;;;4902658;29;20052;-78
2022/01/30 10:55:43;;;;;;;25.15;5.50;;;7.10;99.90;;;;;;4901386;29;20187;-76
2022/01/30 10:58:16;;;;;;;22.90;5.30;;;7.10;99.90;;;;;;4903848;29;20044;-80
2022/01/30 11:00:53;;;;;;;28.83;5.63;;;7.20;99.90;;;;;;4918920;29;20099;-81
2022/01/30 11:03:50;;;;;;;21.75;5.32;;;7.30;99.90;;;;;;4903223;29;20371;-80
2022/01/30 11:06:16;;;;;;;20.33;4.57;;;7.20;99.20;;;;;;4911825;29;20059;-80
2022/01/30 11:08:47;;;;;;;32.15;5.68;;;7.30;99.90;;;;;;4919510;29;20341;-80
2022/01/30 11:11:30;;;;;;;20.75;4.60;;;7.40;99.90;;;;;;4888407;29;20877;-81
2022/01/30 11:19:15;;;;;;;30.33;6.38;;;7.50;99.90;;;;;;4919994;29;20044;-80
2022/01/30 11:21:49;;;;;;;32.00;6.38;;;7.40;99.90;;;;;;4902532;29;20036;-80
2022/01/30 11:24:19;;;;;;;29.33;5.35;;;7.30;99.90;;;;;;4902548;29;20039;-79
2022/01/30 11:26:46;;;;;;;31.88;6.03;;;7.30;99.90;;;;;;4918657;29;20047;-79
2022/01/30 11:29:16;;;;;;;30.02;5.68;;;7.30;99.90;;;;;;4902881;29;20135;-80
2022/01/30 11:31:42;;;;;;;27.63;5.88;;;7.30;99.90;;;;;;4902851;29;20395;-80
2022/01/30 11:34:08;;;;;;;31.55;5.53;;;7.40;99.90;;;;;;4918080;29;20042;-81
2022/01/30 11:36:37;;;;;;;30.92;5.70;;;7.60;99.90;;;;;;4902279;29;20040;-80
2022/01/30 11:39:05;;;;;;;28.50;4.90;;;7.60;99.90;;;;;;4918257;29;20130;-81
2022/01/30 11:41:34;;;;;;;27.98;5.40;;;7.80;99.90;;;;;;4903329;29;20040;-81
2022/01/30 11:44:29;;;;;;;34.22;6.35;;;7.90;99.90;;;;;;4903351;29;20044;-81
2022/01/30 11:47:04;;;;;;;30.52;5.95;;;7.80;99.90;;;;;;4872138;29;20048;-82
2022/01/30 11:49:50;;;;;;;26.50;5.30;;;7.90;99.90;;;;;;4902240;29;20056;-82
2022/01/30 11:52:19;;;;;;;27.08;5.65;;;8.00;99.90;;;;;;4903031;29;20079;-81
2022/01/30 11:54:46;;;;;;;32.15;5.65;;;8.00;99.90;;;;;;4902335;29;20135;-81
2022/01/30 11:57:20;;;;;;;28.13;5.20;;;8.20;99.90;;;;;;4902683;29;20103;-80
2022/01/30 11:59:48;;;;;;;29.00;5.95;;;8.00;99.90;;;;;;4902503;29;20048;-80
2022/01/30 12:02:33;;;;;;;34.00;6.43;;;8.00;99.90;;;;;;4917528;29;20044;-80
2022/01/30 12:05:10;;;;;;;33.90;6.00;;;8.00;99.90;;;;;;4902232;29;20059;-80
2022/01/30 12:07:42;;;;;;;32.08;6.20;;;7.90;99.90;;;;;;4918219;29;20041;-80
2022/01/30 12:10:19;;;;;;;31.75;6.05;;;7.90;99.90;;;;;;4918850;29;20054;-81
2022/01/30 12:13:06;;;;;;;32.70;6.60;;;8.00;99.90;;;;;;4917923;29;20055;-80
2022/01/30 12:15:46;;;;;;;25.83;5.65;;;8.10;99.90;;;;;;4916902;29;20048;-81
2022/01/30 12:18:36;;;;;;;36.35;6.15;;;8.10;99.90;;;;;;4887526;29;20044;-80
2022/01/30 12:21:08;;;;;;;31.25;6.13;;;8.00;99.90;;;;;;4892353;29;20124;-80
2022/01/30 12:23:43;;;;;;;28.40;5.10;;;7.70;99.90;;;;;;4917821;29;20044;-80
2022/01/30 12:26:14;;;;;;;31.08;5.57;;;7.40;99.90;;;;;;4917283;29;20048;-81
2022/01/30 12:28:45;;;;;;;23.25;5.22;;;7.20;99.90;;;;;;4918578;29;20488;-80
2022/01/30 12:31:35;;;;;;;25.13;5.45;;;7.10;99.90;;;;;;4917510;29;20036;-79
2022/01/30 12:34:07;;;;;;;24.70;5.72;;;7.10;99.90;;;;;;4902259;29;20040;-80
2022/01/30 12:36:50;;;;;;;27.95;5.70;;;6.90;99.90;;;;;;4902718;29;20044;-80
2022/01/30 12:39:21;;;;;;;28.02;5.40;;;6.90;99.90;;;;;;4902891;29;20048;-80
2022/01/30 12:41:48;;;;;;;26.33;5.38;;;7.10;99.90;;;;;;4918452;29;20047;-80
2022/01/30 12:44:16;;;;;;;27.55;5.35;;;7.30;99.90;;;;;;4903305;29;20055;-80
2022/01/30 12:46:48;;;;;;;31.23;5.38;;;7.30;99.90;;;;;;4886208;29;20103;-81
2022/01/30 12:49:28;;;;;;;25.60;5.10;;;7.50;99.90;;;;;;4917629;29;20048;-81
2022/01/30 12:51:57;;;;;;;22.45;4.68;;;7.70;99.90;;;;;;4902413;29;20044;-81
2022/01/30 12:54:25;;;;;;;27.30;5.57;;;7.80;99.90;;;;;;4901688;29;20044;-80
2022/01/30 12:56:53;;;;;;;19.27;4.35;;;7.80;99.90;;;;;;4902338;29;20218;-80
2022/01/30 12:59:23;;;;;;;28.77;5.13;;;7.80;99.90;;;;;;4901075;29;20040;-81
2022/01/30 13:01:49;;;;;;;17.65;4.22;;;8.00;99.90;;;;;;4885866;29;20192;-81
2022/01/30 13:04:21;;;;;;;24.98;4.90;;;8.00;98.10;;;;;;4902081;29;20040;-81
2022/01/30 13:06:51;;;;;;;24.60;4.57;;;8.00;98.70;;;;;;4901675;29;20111;-81
2022/01/30 13:09:22;;;;;;;24.95;4.25;;;7.80;98.80;;;;;;4901947;29;20048;-81
2022/01/30 13:11:51;;;;;;;23.33;4.88;;;7.70;98.80;;;;;;4916966;29;20399;-81
2022/01/30 13:14:17;;;;;;;24.70;5.15;;;7.60;98.90;;;;;;4901657;29;20723;-81
2022/01/30 13:16:50;;;;;;;25.58;4.47;;;7.50;99.40;;;;;;4901611;29;20040;-81
2022/01/30 13:19:37;;;;;;;28.00;4.65;;;7.60;99.90;;;;;;4902582;29;20036;-81
2022/01/30 13:22:05;;;;;;;24.98;5.20;;;7.80;99.90;;;;;;4901290;29;20048;-81
2022/01/30 13:24:31;;;;;;;23.98;5.00;;;7.80;98.60;;;;;;4916805;29;20440;-81
2022/01/30 13:27:01;;;;;;;26.42;4.97;;;7.70;99.10;;;;;;4901068;29;20053;-81
2022/01/30 13:29:27;;;;;;;22.88;5.25;;;7.60;99.90;;;;;;4901254;29;20130;-81
2022/01/30 13:31:56;;;;;;;21.77;4.78;;;7.40;99.80;;;;;;4900491;29;20056;-79
2022/01/30 13:34:30;;;;;;;26.77;4.85;;;7.20;99.20;;;;;;4916848;29;20547;-80
2022/01/30 13:37:08;;;;;;;25.08;4.32;;;7.20;99.20;;;;;;4917308;29;20050;-80
2022/01/30 13:47:56;;;;;;;20.40;4.25;;;6.80;99.90;;;;;;4916571;29;20131;-80
2022/01/30 13:50:31;;;;;;;24.58;4.10;;;6.80;99.90;;;;;;4917597;29;20464;-80
2022/01/30 13:53:11;;;;;;;22.00;4.68;;;6.80;99.90;;;;;;4900279;29;20043;-81
2022/01/30 13:55:57;;;;;;;20.00;4.30;;;6.80;99.90;;;;;;4916023;29;20086;-80
2022/01/30 13:58:43;;;;;;;24.73;4.43;;;6.70;99.90;;;;;;4885049;29;20075;-79
2022/01/30 14:01:10;;;;;;;22.73;4.85;;;6.70;99.90;;;;;;4889477;29;20051;-82
2022/01/30 14:03:38;;;;;;;20.13;4.25;;;6.70;99.90;;;;;;4917614;29;20498;-80
2022/01/30 14:06:20;;;;;;;23.30;4.68;;;6.70;99.90;;;;;;4917666;29;20040;-81